createdAt,value
2022-10-17T03:46:19.295Z,90.22
2022-10-17T03:49:22.918Z,90.22
2022-10-17T03:52:26.216Z,91.27
2022-10-17T03:55:29.599Z,91.15
2022-10-17T03:58:31.896Z,90.84
2022-10-17T04:01:36.300Z,90.18
2022-10-17T04:04:38.968Z,89.79
2022-10-17T04:07:41.478Z,90.06
2022-10-17T04:10:45.033Z,89.92
2022-10-17T04:13:47.865Z,90.26
2022-10-17T04:16:50.518Z,89.94
2022-10-17T04:19:53.586Z,89.56
2022-10-17T04:22:58.056Z,89.95
2022-10-17T04:26:01.833Z,90.13
2022-10-17T04:29:05.021Z,90.73
2022-10-17T04:32:07.431Z,90.17
2022-10-17T04:35:10.245Z,89.88
2022-10-17T04:38:13.364Z,88.93
2022-10-17T04:41:18.350Z,89.32
2022-10-17T04:44:20.821Z,89.19
2022-10-17T04:47:24.130Z,89.52
2022-10-17T04:50:26.640Z,88.99
2022-10-17T04:53:39.539Z,89.12
2022-10-17T04:56:42.019Z,89.33
2022-10-17T04:59:44.921Z,89.39
2022-10-17T05:02:47.836Z,88.75
2022-10-17T05:05:50.492Z,88.68
2022-10-17T05:08:53.111Z,88.61
2022-10-17T05:11:56.004Z,88.22
2022-10-17T05:14:58.296Z,88.05
2022-10-17T05:18:02.600Z,88.42
2022-10-17T05:21:05.723Z,87.69
2022-10-17T05:24:10.910Z,87.80
2022-10-17T05:27:13.540Z,87.99
2022-10-17T05:30:16.895Z,88.61
2022-10-17T05:33:19.589Z,88.07
2022-10-17T05:36:22.597Z,88.17
2022-10-17T05:39:25.238Z,88.10
2022-10-17T05:42:28.634Z,87.99
2022-10-17T05:45:33.186Z,88.34
2022-10-17T05:48:37.199Z,88.14
2022-10-17T05:51:41.064Z,88.17
2022-10-17T05:54:43.822Z,88.29
2022-10-17T05:57:46.589Z,88.25
2022-10-17T06:00:49.598Z,88.03
2022-10-17T06:03:52.383Z,87.39
2022-10-17T06:06:56.290Z,86.98
2022-10-17T06:09:59.059Z,86.03
2022-10-17T06:13:01.445Z,85.39
2022-10-17T06:16:04.965Z,85.56
2022-10-17T06:19:07.275Z,85.52
2022-10-17T06:22:10.871Z,85.03
2022-10-17T06:25:13.298Z,83.67
2022-10-17T06:28:16.610Z,83.46
2022-10-17T06:31:18.994Z,82.91
2022-10-17T06:34:22.082Z,83.21
2022-10-17T06:37:24.953Z,82.28
2022-10-17T06:40:28.417Z,82.19
2022-10-17T06:43:30.901Z,81.77
2022-10-17T06:46:33.703Z,81.76
2022-10-17T06:49:36.085Z,81.21
2022-10-17T06:52:39.537Z,78.15
2022-10-17T06:55:44.056Z,77.24
2022-10-17T06:58:49.927Z,77.69
2022-10-17T07:01:53.819Z,74.67
2022-10-17T07:04:58.849Z,72.91
2022-10-17T07:08:01.175Z,72.56
2022-10-17T07:11:16.749Z,71.35
2022-10-17T07:14:19.202Z,71.23
2022-10-17T07:17:21.895Z,71.31
2022-10-17T07:20:25.013Z,71.05
2022-10-17T07:23:27.721Z,70.28
2022-10-17T07:26:30.171Z,68.85
2022-10-17T07:29:33.078Z,68.87
2022-10-17T07:32:35.496Z,68.33
2022-10-17T07:35:41.150Z,66.59
2022-10-17T07:38:43.889Z,68.06
2022-10-17T07:41:50.418Z,68.60
2022-10-17T07:44:53.376Z,67.05
2022-10-17T07:47:59.070Z,64.01
2022-10-17T07:51:03.593Z,63.64
2022-10-17T07:54:06.589Z,64.60
2022-10-17T07:57:09.614Z,63.02
2022-10-17T08:00:14.281Z,62.10
2022-10-17T08:03:16.974Z,60.84
2022-10-17T08:06:19.430Z,61.14
2022-10-17T08:09:22.400Z,60.15
2022-10-17T08:12:25.992Z,60.41
2022-10-17T08:15:31.724Z,59.99
2022-10-17T08:18:35.722Z,60.76
2022-10-17T08:21:38.735Z,59.52
2022-10-17T08:24:42.754Z,59.63
2022-10-17T08:27:45.527Z,59.43
2022-10-17T08:30:48.082Z,57.58
2022-10-17T08:33:51.025Z,57.92
2022-10-17T08:36:53.418Z,56.89
2022-10-17T08:39:56.122Z,56.35
2022-10-17T08:43:12.196Z,56.25
2022-10-17T08:49:38.279Z,48.65
2022-10-17T08:53:11.246Z,39.80
2022-10-17T08:56:43.926Z,41.02
2022-10-17T08:59:54.211Z,45.31
2022-10-17T09:03:22.608Z,49.23
2022-10-17T09:06:33.616Z,52.06
2022-10-17T09:10:09.481Z,52.63
2022-10-17T09:16:47.754Z,53.08
2022-10-17T09:20:12.254Z,53.23
2022-10-17T09:23:27.878Z,54.68
2022-10-17T09:26:30.685Z,51.33
2022-10-17T09:29:37.905Z,52.17
2022-10-17T09:32:43.065Z,50.82
2022-10-17T09:35:46.805Z,48.30
2022-10-17T09:38:55.207Z,48.73
2022-10-17T09:42:00.546Z,49.04
2022-10-17T09:45:13.953Z,49.33
2022-10-17T09:48:17.071Z,47.93
2022-10-17T09:51:25.846Z,47.11
2022-10-17T09:54:52.719Z,47.93
2022-10-17T09:58:04.490Z,47.91
2022-10-17T10:01:24.397Z,48.83
2022-10-17T10:04:30.565Z,46.31
2022-10-17T10:07:39.841Z,47.28
2022-10-17T10:10:43.506Z,46.61
2022-10-17T10:13:48.334Z,46.18
2022-10-17T10:16:53.727Z,45.60
2022-10-17T10:19:56.436Z,45.49
2022-10-17T10:23:13.533Z,45.64
2022-10-17T10:26:26.154Z,45.07
2022-10-17T10:29:31.140Z,43.76
2022-10-17T10:32:36.680Z,43.71
2022-10-17T10:35:39.528Z,43.70
2022-10-17T10:38:42.513Z,43.31
2022-10-17T10:41:48.740Z,42.28
2022-10-17T10:44:52.792Z,41.66
2022-10-17T10:47:58.871Z,42.27
2022-10-17T10:51:16.318Z,42.26
2022-10-17T10:54:26.528Z,41.87
2022-10-17T10:57:33.327Z,41.15
2022-10-17T11:00:39.138Z,41.62
2022-10-17T11:03:50.974Z,41.73
2022-10-17T11:07:04.890Z,41.97
2022-10-17T11:10:49.630Z,41.67
2022-10-17T11:14:03.460Z,41.71
2022-10-17T11:17:12.103Z,40.89
2022-10-17T11:20:27.154Z,41.52
2022-10-17T11:23:41.486Z,41.31
2022-10-17T11:26:55.414Z,42.60
2022-10-17T11:29:58.549Z,41.62
2022-10-17T11:33:03.460Z,41.66
2022-10-17T11:36:07.976Z,41.63
2022-10-17T11:39:18.468Z,41.28
2022-10-17T11:42:35.665Z,41.13
2022-10-17T11:45:46.233Z,41.28
2022-10-17T11:49:08.841Z,41.11
2022-10-17T11:52:31.574Z,40.89
2022-10-17T11:55:41.892Z,40.85
2022-10-17T11:59:02.029Z,40.26
2022-10-17T12:02:11.732Z,40.72
2022-10-17T12:05:49.270Z,41.42
2022-10-17T12:09:07.471Z,40.35
2022-10-17T12:12:10.099Z,40.69
2022-10-17T12:15:24.598Z,40.24
2022-10-17T12:18:27.611Z,40.27
2022-10-17T12:22:00.256Z,40.10
2022-10-17T12:25:04.272Z,39.47
2022-10-17T12:28:06.415Z,39.50
2022-10-17T12:31:23.120Z,39.68
2022-10-17T12:34:25.527Z,39.81
2022-10-17T12:37:43.440Z,39.91
2022-10-17T12:40:49.100Z,39.97
2022-10-17T12:43:53.474Z,39.48
2022-10-17T12:47:05.164Z,38.82
2022-10-17T12:50:47.950Z,39.43
2022-10-17T12:53:58.533Z,38.74
2022-10-17T12:57:01.129Z,39.14
2022-10-17T13:00:27.536Z,38.85
2022-10-17T13:03:42.372Z,38.51
2022-10-17T13:06:53.313Z,39.09
2022-10-17T13:09:56.307Z,40.28
2022-10-17T13:13:06.597Z,40.39
2022-10-17T13:16:09.679Z,39.34
2022-10-17T13:19:19.781Z,39.81
2022-10-17T13:22:28.670Z,39.63
2022-10-17T13:25:31.390Z,39.82
2022-10-17T13:28:39.066Z,40.36
2022-10-17T13:31:44.444Z,38.08
2022-10-17T13:34:47.098Z,38.41
2022-10-17T13:37:53.948Z,39.03
2022-10-17T13:41:05.833Z,38.36
2022-10-17T13:44:20.994Z,38.91
2022-10-17T13:47:27.664Z,39.29
2022-10-17T13:50:44.816Z,38.36
2022-10-17T13:53:47.822Z,40.27
2022-10-17T13:56:57.061Z,40.62
2022-10-17T14:00:10.100Z,40.20
2022-10-17T14:03:15.100Z,38.94
2022-10-17T14:06:23.567Z,38.47
2022-10-17T14:09:29.536Z,39.45
2022-10-17T14:12:33.841Z,39.25
2022-10-17T14:15:37.235Z,39.84
2022-10-17T14:18:40.671Z,40.09
2022-10-17T14:21:47.858Z,39.51
2022-10-17T14:24:53.226Z,39.86
2022-10-17T14:28:03.476Z,40.22
2022-10-17T14:31:11.204Z,42.15
2022-10-17T14:34:27.703Z,40.42
2022-10-17T14:37:44.892Z,42.09
2022-10-17T14:40:52.779Z,41.18
2022-10-17T14:44:02.316Z,41.97
2022-10-17T14:47:38.077Z,42.71
2022-10-17T14:50:32.900Z,42.14
2022-10-17T14:53:36.196Z,41.79
2022-10-17T14:56:43.307Z,42.56
2022-10-17T14:59:54.566Z,42.53
2022-10-17T15:02:57.928Z,43.38
2022-10-17T15:06:17.356Z,44.23
2022-10-17T15:09:19.998Z,45.12
2022-10-17T15:12:25.057Z,45.09
2022-10-17T15:15:31.805Z,44.54
2022-10-17T15:18:34.060Z,47.71
2022-10-17T15:21:40.771Z,49.37
2022-10-17T15:24:47.424Z,50.99
2022-10-17T15:27:50.214Z,51.85
2022-10-17T15:30:52.550Z,52.86
2022-10-17T15:33:55.405Z,54.54
2022-10-17T15:36:58.713Z,54.62
2022-10-17T15:40:01.634Z,55.55
2022-10-17T15:43:04.040Z,56.51
2022-10-17T15:46:13.297Z,57.30
2022-10-17T15:49:18.585Z,57.57
2022-10-17T15:52:22.474Z,58.31
2022-10-17T15:55:24.973Z,59.03
2022-10-17T15:58:35.125Z,59.75
